createdAt,value
2023-04-19T00:00:47.949Z,22.42
2023-04-19T00:04:55.876Z,24.13
2023-04-19T00:09:01.824Z,24.27
2023-04-19T00:13:10.548Z,27.23
2023-04-19T00:17:13.624Z,27.08
2023-04-19T00:21:18.322Z,20.05
2023-04-19T00:25:24.925Z,25.67
2023-04-19T00:29:30.024Z,24.27
2023-04-19T00:33:36.005Z,21.60
2023-04-19T00:37:40.431Z,22.85
2023-04-19T00:41:45.669Z,21.85
2023-04-19T00:45:52.106Z,20.58
2023-04-19T00:49:57.783Z,27.15
2023-04-19T00:54:03.947Z,27.77
2023-04-19T00:58:08.395Z,27.05
2023-04-19T01:02:11.882Z,24.58
2023-04-19T01:06:17.255Z,30.02
2023-04-19T01:10:21.696Z,27.33
2023-04-19T01:14:24.727Z,28.13
2023-04-19T01:18:32.909Z,28.45
2023-04-19T01:22:38.129Z,26.65
2023-04-19T01:26:41.178Z,29.33
2023-04-19T01:30:44.716Z,25.33
2023-04-19T01:34:51.097Z,27.30
2023-04-19T01:38:55.578Z,25.75
2023-04-19T01:43:03.594Z,26.13
2023-04-19T01:47:07.028Z,29.97
2023-04-19T01:51:14.155Z,27.23
2023-04-19T01:55:19.273Z,31.75
2023-04-19T01:59:22.275Z,31.35
2023-04-19T02:03:27.765Z,29.08
2023-04-19T02:07:33.702Z,30.80
2023-04-19T02:11:41.083Z,29.13
2023-04-19T02:15:44.092Z,29.63
2023-04-19T02:19:49.452Z,31.15
2023-04-19T02:23:52.554Z,30.63
2023-04-19T02:27:56.951Z,31.93
2023-04-19T02:32:01.294Z,33.08
2023-04-19T02:36:04.551Z,34.60
2023-04-19T02:40:09.401Z,31.70
2023-04-19T02:44:15.146Z,33.38
2023-04-19T02:48:22.529Z,33.63
2023-04-19T02:52:27.200Z,32.38
2023-04-19T02:56:30.205Z,34.95
2023-04-19T03:00:37.594Z,36.87
2023-04-19T03:04:40.984Z,34.40
2023-04-19T03:08:43.993Z,37.10
2023-04-19T03:12:50.550Z,37.47
2023-04-19T03:16:55.198Z,37.63
2023-04-19T03:20:58.471Z,33.43
2023-04-19T03:25:01.477Z,31.50
2023-04-19T03:29:07.482Z,31.27
2023-04-19T03:33:13.696Z,34.17
2023-04-19T03:37:17.202Z,33.27
2023-04-19T03:41:20.852Z,39.47
2023-04-19T03:45:28.194Z,45.33
2023-04-19T03:49:33.839Z,42.33
2023-04-19T03:53:37.683Z,42.05
2023-04-19T03:57:41.107Z,37.67
2023-04-19T04:01:46.090Z,40.57
2023-04-19T04:05:52.491Z,44.30
2023-04-19T04:09:55.521Z,41.53
2023-04-19T04:13:58.592Z,55.30
2023-04-19T04:18:03.968Z,44.45
2023-04-19T04:22:09.754Z,45.58
2023-04-19T04:26:17.427Z,35.50
2023-04-19T04:30:20.558Z,39.60
2023-04-19T04:34:24.688Z,48.00
2023-04-19T04:38:37.693Z,43.30
2023-04-19T04:42:41.409Z,40.28
2023-04-19T04:46:44.456Z,41.60
2023-04-19T04:50:57.508Z,40.65
2023-04-19T04:55:02.067Z,43.25
2023-04-19T04:59:06.207Z,41.73
2023-04-19T05:03:09.292Z,43.97
2023-04-19T05:07:15.407Z,36.38
2023-04-19T05:11:21.023Z,42.17
2023-04-19T05:15:28.942Z,44.22
2023-04-19T05:19:34.720Z,40.55
2023-04-19T05:23:38.483Z,36.00
2023-04-19T05:27:43.010Z,39.55
2023-04-19T05:31:51.043Z,36.67
2023-04-19T05:35:55.154Z,38.73
2023-04-19T05:40:00.776Z,39.28
2023-04-19T05:44:07.471Z,35.67
2023-04-19T05:48:10.590Z,41.03
2023-04-19T05:52:16.125Z,33.08
2023-04-19T05:56:22.196Z,37.15
2023-04-19T06:00:27.796Z,28.63
2023-04-19T06:04:34.092Z,32.38
2023-04-19T06:08:37.330Z,32.50
2023-04-19T06:12:40.746Z,34.30
2023-04-19T06:16:47.819Z,30.98
2023-04-19T06:20:50.905Z,35.13
2023-04-19T06:24:55.349Z,30.92
2023-04-19T06:28:59.199Z,28.17
2023-04-19T06:33:11.096Z,28.85
2023-04-19T06:37:14.771Z,27.02
2023-04-19T06:41:18.437Z,28.45
2023-04-19T06:45:22.195Z,23.77
2023-04-19T06:49:26.579Z,24.35
2023-04-19T06:53:29.758Z,27.38
2023-04-19T06:57:35.671Z,23.65
2023-04-19T07:01:39.226Z,25.52
2023-04-19T07:05:43.956Z,28.05
2023-04-19T07:09:50.954Z,24.38
2023-04-19T07:13:54.346Z,28.40
2023-04-19T07:17:57.370Z,25.27
2023-04-19T07:22:03.318Z,23.73
2023-04-19T07:26:06.417Z,21.65
2023-04-19T07:30:13.189Z,25.38
2023-04-19T07:34:16.469Z,24.67
2023-04-19T07:38:25.148Z,29.92
2023-04-19T07:42:30.688Z,26.63
2023-04-19T07:46:35.947Z,29.50
2023-04-19T07:50:39.106Z,28.90
2023-04-19T07:54:43.556Z,32.63
2023-04-19T07:58:50.698Z,31.35
2023-04-19T08:02:58.303Z,33.33
2023-04-19T08:07:05.043Z,33.67
2023-04-19T08:11:09.445Z,42.85
2023-04-19T08:15:41.148Z,33.25
2023-04-19T08:19:39.685Z,44.30
2023-04-19T08:23:48.378Z,31.15
2023-04-19T08:27:53.005Z,38.33
2023-04-19T08:31:56.313Z,35.80
2023-04-19T08:35:59.412Z,29.15
2023-04-19T08:40:02.765Z,31.15
2023-04-19T08:44:08.665Z,35.08
2023-04-19T08:48:14.770Z,32.25
2023-04-19T08:52:19.165Z,32.63
2023-04-19T08:56:34.916Z,33.40
2023-04-19T09:00:41.390Z,31.17
2023-04-19T09:04:44.664Z,33.55
2023-04-19T09:08:52.534Z,33.40
2023-04-19T09:13:05.187Z,35.95
2023-04-19T09:17:19.023Z,31.85
2023-04-19T09:21:29.733Z,32.88
2023-04-19T09:25:52.392Z,38.60
2023-04-19T09:29:58.842Z,30.40
2023-04-19T09:34:24.242Z,30.50
2023-04-19T09:38:28.487Z,27.98
2023-04-19T09:46:54.086Z,28.13
2023-04-19T09:51:05.822Z,29.83
2023-04-19T09:55:24.928Z,33.63
2023-04-19T09:59:30.344Z,34.08
2023-04-19T10:03:36.610Z,27.77
2023-04-19T10:07:41.856Z,25.87
2023-04-19T10:11:54.431Z,28.80
2023-04-19T10:16:15.683Z,38.47
2023-04-19T10:20:26.165Z,39.00
2023-04-19T10:24:33.071Z,45.00
2023-04-19T10:28:38.358Z,40.03
2023-04-19T10:32:42.484Z,45.50
2023-04-19T10:36:48.941Z,41.03
2023-04-19T10:41:04.262Z,36.70
2023-04-19T10:45:33.074Z,40.97
2023-04-19T10:49:49.022Z,41.80
2023-04-19T10:53:59.016Z,50.30
2023-04-19T10:58:09.257Z,41.35
2023-04-19T11:02:36.437Z,31.17
2023-04-19T11:06:57.410Z,25.47
2023-04-19T11:11:00.828Z,28.67
2023-04-19T11:15:09.513Z,32.77
2023-04-19T11:19:16.297Z,24.13
2023-04-19T11:23:20.053Z,35.75
2023-04-19T11:27:23.134Z,34.00
2023-04-19T11:31:27.671Z,20.85
2023-04-19T11:35:31.526Z,23.20
2023-04-19T11:39:34.546Z,31.15
2023-04-19T11:43:41.376Z,24.45
2023-04-19T11:47:56.901Z,24.90
2023-04-19T11:52:03.111Z,19.92
2023-04-19T11:56:10.550Z,23.20
2023-04-19T12:00:15.116Z,19.50
2023-04-19T12:04:23.624Z,20.13
2023-04-19T12:08:37.820Z,16.13
2023-04-19T12:12:43.665Z,17.50
2023-04-19T12:16:50.188Z,15.82
2023-04-19T12:20:55.398Z,12.65
2023-04-19T12:24:58.541Z,11.75
2023-04-19T12:29:02.853Z,12.55
2023-04-19T12:33:07.120Z,13.52
2023-04-19T12:37:11.967Z,10.48
2023-04-19T12:41:15.320Z,8.18
2023-04-19T12:45:29.112Z,8.15
2023-04-19T12:49:34.448Z,11.18
2023-04-19T12:53:39.199Z,7.85
2023-04-19T12:57:46.090Z,7.63
2023-04-19T13:01:49.139Z,5.07
2023-04-19T13:05:53.251Z,5.07
2023-04-19T13:09:59.969Z,5.68
2023-04-19T13:14:08.764Z,5.75
2023-04-19T13:18:16.893Z,4.32
2023-04-19T13:22:19.910Z,5.93
2023-04-19T13:26:24.550Z,5.75
2023-04-19T13:30:28.130Z,5.28
2023-04-19T13:34:31.249Z,3.40
2023-04-19T13:38:34.338Z,5.13
2023-04-19T13:42:39.084Z,5.75
2023-04-19T13:46:44.905Z,4.90
2023-04-19T13:50:51.104Z,3.42
2023-04-19T13:54:57.267Z,5.53
2023-04-19T13:59:04.413Z,2.90
2023-04-19T14:03:09.861Z,5.03
2023-04-19T14:07:14.914Z,7.38
2023-04-19T14:11:35.225Z,2.20
2023-04-19T14:15:40.389Z,3.55
2023-04-19T14:19:43.802Z,2.40
2023-04-19T14:23:47.366Z,3.58
2023-04-19T14:27:50.680Z,2.65
2023-04-19T14:31:56.111Z,3.97
2023-04-19T14:35:59.163Z,2.85
2023-04-19T14:40:02.238Z,2.50
2023-04-19T14:44:09.236Z,5.03
2023-04-19T14:48:15.407Z,5.75
2023-04-19T14:52:22.614Z,6.65
2023-04-19T14:56:25.811Z,14.32
2023-04-19T15:00:28.863Z,10.95
2023-04-19T15:04:37.397Z,19.63
2023-04-19T15:08:47.066Z,7.53
2023-04-19T15:12:50.049Z,6.20
2023-04-19T15:16:53.116Z,7.32
2023-04-19T15:21:00.313Z,6.47
2023-04-19T15:25:08.330Z,3.38
2023-04-19T15:29:13.488Z,9.07
2023-04-19T15:33:16.636Z,5.88
2023-04-19T15:37:21.162Z,4.85
2023-04-19T15:41:25.225Z,9.02
2023-04-19T15:45:28.627Z,5.10
2023-04-19T15:49:36.633Z,5.72
2023-04-19T15:53:41.313Z,5.25
2023-04-19T15:57:50.776Z,3.75
2023-04-19T16:01:53.931Z,3.17
2023-04-19T16:05:57.004Z,3.13
2023-04-19T16:10:03.421Z,5.90
2023-04-19T16:14:06.501Z,4.55
2023-04-19T16:18:12.516Z,2.90
2023-04-19T16:22:15.751Z,5.20
2023-04-19T16:26:20.162Z,4.20
2023-04-19T16:30:23.613Z,3.45
2023-04-19T16:34:28.115Z,3.00
2023-04-19T16:38:36.963Z,3.08
2023-04-19T16:42:41.856Z,4.50
2023-04-19T16:46:44.893Z,6.30
2023-04-19T16:50:50.457Z,4.68
2023-04-19T16:54:55.214Z,4.20
2023-04-19T16:59:03.465Z,2.72
2023-04-19T17:03:10.953Z,3.65
2023-04-19T17:07:14.255Z,4.18
2023-04-19T17:11:19.772Z,3.00
2023-04-19T17:15:24.435Z,7.18
2023-04-19T17:19:31.470Z,4.35
2023-04-19T17:23:37.237Z,6.07
2023-04-19T17:27:45.580Z,3.65
2023-04-19T17:31:56.178Z,4.20
2023-04-19T17:36:01.501Z,3.03
2023-04-19T17:40:07.298Z,3.33
2023-04-19T17:44:13.164Z,3.03
2023-04-19T17:48:20.201Z,3.28
2023-04-19T17:52:32.126Z,3.38
2023-04-19T17:56:38.750Z,2.60
2023-04-19T18:00:41.802Z,4.30
2023-04-19T18:04:46.450Z,3.65
2023-04-19T18:08:49.970Z,2.83
2023-04-19T18:12:53.884Z,7.38
2023-04-19T18:16:58.517Z,5.40
2023-04-19T18:21:10.021Z,3.33
2023-04-19T18:25:13.178Z,5.72
2023-04-19T18:29:16.749Z,4.55
2023-04-19T18:33:22.385Z,4.63
2023-04-19T18:37:28.763Z,3.15
2023-04-19T18:41:31.820Z,3.00
2023-04-19T18:45:34.965Z,5.70
2023-04-19T18:49:38.083Z,3.27
2023-04-19T18:53:47.511Z,5.45
2023-04-19T18:57:51.532Z,4.47
2023-04-19T19:01:56.772Z,8.53
2023-04-19T19:06:00.642Z,9.03
2023-04-19T19:14:21.552Z,3.60
2023-04-19T19:18:27.632Z,4.97
2023-04-19T19:22:31.161Z,5.43
2023-04-19T19:26:35.598Z,3.45
2023-04-19T19:30:46.125Z,7.83
2023-04-19T19:38:55.988Z,4.33
2023-04-19T19:43:00.859Z,6.67
2023-04-19T19:47:09.372Z,5.43
2023-04-19T19:51:42.211Z,3.60
2023-04-19T19:55:37.211Z,8.57
2023-04-19T19:59:51.345Z,6.37
2023-04-19T20:03:58.731Z,6.07
2023-04-19T20:08:10.163Z,9.03
2023-04-19T20:12:16.690Z,8.53
2023-04-19T20:16:21.230Z,9.30
2023-04-19T20:20:27.134Z,6.93
2023-04-19T20:24:32.283Z,6.07
2023-04-19T20:28:36.686Z,5.80
2023-04-19T20:32:44.225Z,8.37
2023-04-19T20:36:47.762Z,7.60
2023-04-19T20:40:51.063Z,6.23
2023-04-19T20:44:54.077Z,10.97
2023-04-19T20:49:02.821Z,11.07
2023-04-19T20:53:07.110Z,5.63
2023-04-19T20:57:12.336Z,8.13
2023-04-19T21:01:21.228Z,6.37
2023-04-19T21:05:30.056Z,7.23
2023-04-19T21:09:33.116Z,6.00
2023-04-19T21:13:36.286Z,5.90
2023-04-19T21:17:39.412Z,6.50
2023-04-19T21:21:44.120Z,6.80
2023-04-19T21:25:47.730Z,7.50
2023-04-19T21:29:55.715Z,6.60
2023-04-19T21:33:59.026Z,7.87
2023-04-19T21:38:03.737Z,10.50
2023-04-19T21:42:08.591Z,9.13
2023-04-19T21:46:14.271Z,8.77
2023-04-19T21:50:27.316Z,7.13
2023-04-19T21:54:34.219Z,7.90
2023-04-19T21:58:38.398Z,6.20
2023-04-19T22:02:41.646Z,12.03
2023-04-19T22:06:46.597Z,8.77
2023-04-19T22:10:51.494Z,7.43
2023-04-19T22:15:01.809Z,12.67
2023-04-19T22:19:05.213Z,13.10
2023-04-19T22:23:08.568Z,10.87
2023-04-19T22:27:13.195Z,10.27
2023-04-19T22:31:16.515Z,8.37
2023-04-19T22:35:23.785Z,8.40
2023-04-19T22:39:27.232Z,11.63
2023-04-19T22:43:34.573Z,12.07
2023-04-19T22:47:42.656Z,12.47
2023-04-19T22:51:48.411Z,8.63
2023-04-19T22:55:51.545Z,9.70
2023-04-19T22:59:56.112Z,9.70
2023-04-19T23:03:59.815Z,9.07
2023-04-19T23:08:05.855Z,10.73
2023-04-19T23:12:09.085Z,5.67
2023-04-19T23:16:15.853Z,11.00
2023-04-19T23:20:19.062Z,9.97
2023-04-19T23:24:26.044Z,10.87
2023-04-19T23:28:32.621Z,9.90
2023-04-19T23:32:38.259Z,20.00
2023-04-19T23:36:45.559Z,9.77
2023-04-19T23:40:49.753Z,12.63
2023-04-19T23:44:55.066Z,13.83
2023-04-19T23:48:59.482Z,10.80
2023-04-19T23:53:07.342Z,10.07
2023-04-19T23:57:11.226Z,10.50
